sensor_id;sensor_type;location;lat;lon;timestamp;P1;durP1;ratioP1;P2;durP2;ratioP2
12306;SDS011;6216;51.146;7.008;2022-09-21T00:01:05;6.60;;;3.90;;
12306;SDS011;6216;51.146;7.008;2022-09-21T00:03:34;5.43;;;3.77;;
12306;SDS011;6216;51.146;7.008;2022-09-21T00:06:02;6.00;;;3.30;;
12306;SDS011;6216;51.146;7.008;2022-09-21T00:08:31;5.53;;;3.23;;
12306;SDS011;6216;51.146;7.008;2022-09-21T00:10:59;7.50;;;2.73;;
12306;SDS011;6216;51.146;7.008;2022-09-21T00:13:29;4.73;;;3.00;;
12306;SDS011;6216;51.146;7.008;2022-09-21T00:16:00;5.60;;;3.03;;
12306;SDS011;6216;51.146;7.008;2022-09-21T00:18:30;4.63;;;2.90;;
12306;SDS011;6216;51.146;7.008;2022-09-21T00:20:59;8.23;;;3.03;;
12306;SDS011;6216;51.146;7.008;2022-09-21T00:23:27;4.00;;;2.60;;
12306;SDS011;6216;51.146;7.008;2022-09-21T00:26:02;3.37;;;2.60;;
12306;SDS011;6216;51.146;7.008;2022-09-21T00:28:34;6.00;;;2.97;;
12306;SDS011;6216;51.146;7.008;2022-09-21T00:31:05;3.67;;;2.43;;
12306;SDS011;6216;51.146;7.008;2022-09-21T00:33:37;5.47;;;2.10;;
12306;SDS011;6216;51.146;7.008;2022-09-21T00:36:06;7.73;;;2.70;;
12306;SDS011;6216;51.146;7.008;2022-09-21T00:38:36;5.47;;;2.90;;
12306;SDS011;6216;51.146;7.008;2022-09-21T00:41:04;6.73;;;2.70;;
12306;SDS011;6216;51.146;7.008;2022-09-21T00:43:34;6.47;;;2.57;;
12306;SDS011;6216;51.146;7.008;2022-09-21T00:46:05;6.20;;;2.63;;
12306;SDS011;6216;51.146;7.008;2022-09-21T00:48:40;5.57;;;3.00;;
12306;SDS011;6216;51.146;7.008;2022-09-21T00:51:08;5.23;;;2.37;;
12306;SDS011;6216;51.146;7.008;2022-09-21T00:53:36;6.87;;;2.73;;
12306;SDS011;6216;51.146;7.008;2022-09-21T00:56:05;4.57;;;2.80;;
12306;SDS011;6216;51.146;7.008;2022-09-21T00:58:37;5.03;;;2.43;;
12306;SDS011;6216;51.146;7.008;2022-09-21T01:01:12;5.73;;;3.20;;
12306;SDS011;6216;51.146;7.008;2022-09-21T01:03:41;4.27;;;2.43;;
12306;SDS011;6216;51.146;7.008;2022-09-21T01:06:10;5.40;;;2.67;;
12306;SDS011;6216;51.146;7.008;2022-09-21T01:08:39;6.23;;;2.90;;
12306;SDS011;6216;51.146;7.008;2022-09-21T01:11:15;6.40;;;2.10;;
12306;SDS011;6216;51.146;7.008;2022-09-21T01:13:59;3.50;;;2.80;;
12306;SDS011;6216;51.146;7.008;2022-09-21T01:16:41;4.70;;;2.43;;
12306;SDS011;6216;51.146;7.008;2022-09-21T01:19:21;6.27;;;2.43;;
12306;SDS011;6216;51.146;7.008;2022-09-21T01:22:01;3.23;;;2.40;;
12306;SDS011;6216;51.146;7.008;2022-09-21T01:24:43;4.43;;;2.63;;
12306;SDS011;6216;51.146;7.008;2022-09-21T01:27:24;7.37;;;2.17;;
12306;SDS011;6216;51.146;7.008;2022-09-21T01:30:03;5.53;;;2.83;;
12306;SDS011;6216;51.146;7.008;2022-09-21T01:32:35;5.13;;;2.50;;
12306;SDS011;6216;51.146;7.008;2022-09-21T01:35:05;4.07;;;2.70;;
12306;SDS011;6216;51.146;7.008;2022-09-21T01:37:37;4.73;;;2.70;;
12306;SDS011;6216;51.146;7.008;2022-09-21T01:40:10;3.20;;;2.40;;
12306;SDS011;6216;51.146;7.008;2022-09-21T01:42:41;4.53;;;2.60;;
12306;SDS011;6216;51.146;7.008;2022-09-21T01:45:13;4.10;;;2.13;;
12306;SDS011;6216;51.146;7.008;2022-09-21T01:47:44;6.37;;;2.50;;
12306;SDS011;6216;51.146;7.008;2022-09-21T01:50:15;6.73;;;2.13;;
12306;SDS011;6216;51.146;7.008;2022-09-21T01:52:46;4.30;;;2.43;;
12306;SDS011;6216;51.146;7.008;2022-09-21T01:55:19;4.37;;;2.43;;
12306;SDS011;6216;51.146;7.008;2022-09-21T01:57:54;4.37;;;1.90;;
12306;SDS011;6216;51.146;7.008;2022-09-21T02:00:26;2.50;;;1.90;;
12306;SDS011;6216;51.146;7.008;2022-09-21T02:02:56;4.10;;;2.27;;
12306;SDS011;6216;51.146;7.008;2022-09-21T02:05:28;6.43;;;2.13;;
12306;SDS011;6216;51.146;7.008;2022-09-21T02:07:56;3.30;;;1.80;;
12306;SDS011;6216;51.146;7.008;2022-09-21T02:10:26;5.17;;;2.37;;
12306;SDS011;6216;51.146;7.008;2022-09-21T02:12:59;2.83;;;2.10;;
12306;SDS011;6216;51.146;7.008;2022-09-21T02:15:34;5.40;;;2.37;;
12306;SDS011;6216;51.146;7.008;2022-09-21T02:18:14;6.07;;;2.40;;
12306;SDS011;6216;51.146;7.008;2022-09-21T02:20:48;1.80;;;1.50;;
12306;SDS011;6216;51.146;7.008;2022-09-21T02:23:23;3.80;;;2.30;;
12306;SDS011;6216;51.146;7.008;2022-09-21T02:25:56;4.60;;;2.20;;
12306;SDS011;6216;51.146;7.008;2022-09-21T02:28:32;5.00;;;2.20;;
12306;SDS011;6216;51.146;7.008;2022-09-21T02:31:08;3.30;;;1.77;;
12306;SDS011;6216;51.146;7.008;2022-09-21T02:33:45;4.80;;;2.37;;
12306;SDS011;6216;51.146;7.008;2022-09-21T02:36:19;4.37;;;2.10;;
12306;SDS011;6216;51.146;7.008;2022-09-21T02:38:55;5.77;;;2.13;;
12306;SDS011;6216;51.146;7.008;2022-09-21T02:41:33;3.90;;;2.33;;
12306;SDS011;6216;51.146;7.008;2022-09-21T02:44:05;3.20;;;2.07;;
12306;SDS011;6216;51.146;7.008;2022-09-21T02:46:39;3.53;;;2.40;;
12306;SDS011;6216;51.146;7.008;2022-09-21T02:49:11;4.27;;;2.63;;
12306;SDS011;6216;51.146;7.008;2022-09-21T02:51:43;4.43;;;2.20;;
12306;SDS011;6216;51.146;7.008;2022-09-21T02:54:13;2.13;;;1.90;;
12306;SDS011;6216;51.146;7.008;2022-09-21T02:56:44;2.80;;;1.93;;
12306;SDS011;6216;51.146;7.008;2022-09-21T02:59:14;5.33;;;2.43;;
12306;SDS011;6216;51.146;7.008;2022-09-21T03:01:44;2.87;;;2.00;;
12306;SDS011;6216;51.146;7.008;2022-09-21T03:04:13;4.43;;;2.10;;
12306;SDS011;6216;51.146;7.008;2022-09-21T03:06:40;3.50;;;2.00;;
12306;SDS011;6216;51.146;7.008;2022-09-21T03:09:09;3.93;;;2.53;;
12306;SDS011;6216;51.146;7.008;2022-09-21T03:11:36;2.40;;;1.70;;
12306;SDS011;6216;51.146;7.008;2022-09-21T03:14:07;4.57;;;2.63;;
12306;SDS011;6216;51.146;7.008;2022-09-21T03:16:35;3.43;;;2.30;;
12306;SDS011;6216;51.146;7.008;2022-09-21T03:19:05;3.37;;;2.40;;
12306;SDS011;6216;51.146;7.008;2022-09-21T03:21:34;5.80;;;2.33;;
12306;SDS011;6216;51.146;7.008;2022-09-21T03:24:06;6.80;;;2.10;;
12306;SDS011;6216;51.146;7.008;2022-09-21T03:26:34;8.83;;;2.73;;
12306;SDS011;6216;51.146;7.008;2022-09-21T03:29:02;4.73;;;2.60;;
12306;SDS011;6216;51.146;7.008;2022-09-21T03:31:30;2.73;;;2.53;;
12306;SDS011;6216;51.146;7.008;2022-09-21T03:33:59;2.90;;;2.20;;
12306;SDS011;6216;51.146;7.008;2022-09-21T03:36:28;4.30;;;2.57;;
12306;SDS011;6216;51.146;7.008;2022-09-21T03:38:56;3.60;;;2.70;;
12306;SDS011;6216;51.146;7.008;2022-09-21T03:41:24;3.93;;;2.60;;
12306;SDS011;6216;51.146;7.008;2022-09-21T03:43:52;2.87;;;2.10;;
12306;SDS011;6216;51.146;7.008;2022-09-21T03:46:20;3.87;;;2.40;;
12306;SDS011;6216;51.146;7.008;2022-09-21T03:48:48;4.40;;;2.37;;
12306;SDS011;6216;51.146;7.008;2022-09-21T03:51:16;3.37;;;2.50;;
12306;SDS011;6216;51.146;7.008;2022-09-21T03:53:45;6.90;;;2.07;;
12306;SDS011;6216;51.146;7.008;2022-09-21T03:56:13;2.27;;;1.73;;
12306;SDS011;6216;51.146;7.008;2022-09-21T03:58:41;3.00;;;2.17;;
12306;SDS011;6216;51.146;7.008;2022-09-21T04:01:09;7.63;;;2.63;;
12306;SDS011;6216;51.146;7.008;2022-09-21T04:03:37;2.70;;;2.27;;
12306;SDS011;6216;51.146;7.008;2022-09-21T04:06:07;3.47;;;2.40;;
12306;SDS011;6216;51.146;7.008;2022-09-21T04:08:35;3.73;;;2.27;;
12306;SDS011;6216;51.146;7.008;2022-09-21T04:11:09;4.20;;;2.43;;
12306;SDS011;6216;51.146;7.008;2022-09-21T04:13:37;4.20;;;2.57;;
12306;SDS011;6216;51.146;7.008;2022-09-21T04:16:07;4.20;;;3.10;;
12306;SDS011;6216;51.146;7.008;2022-09-21T04:18:35;2.63;;;2.43;;
12306;SDS011;6216;51.146;7.008;2022-09-21T04:21:04;4.47;;;3.10;;
12306;SDS011;6216;51.146;7.008;2022-09-21T04:23:32;3.03;;;2.33;;
12306;SDS011;6216;51.146;7.008;2022-09-21T04:26:00;2.37;;;2.10;;
12306;SDS011;6216;51.146;7.008;2022-09-21T04:28:30;3.03;;;2.13;;
12306;SDS011;6216;51.146;7.008;2022-09-21T04:30:58;5.90;;;2.43;;
12306;SDS011;6216;51.146;7.008;2022-09-21T04:33:25;2.80;;;2.10;;
12306;SDS011;6216;51.146;7.008;2022-09-21T04:35:54;3.60;;;2.03;;
12306;SDS011;6216;51.146;7.008;2022-09-21T04:38:21;2.57;;;1.83;;
12306;SDS011;6216;51.146;7.008;2022-09-21T04:40:53;6.67;;;2.23;;
12306;SDS011;6216;51.146;7.008;2022-09-21T04:43:22;3.57;;;2.67;;
12306;SDS011;6216;51.146;7.008;2022-09-21T04:45:51;5.37;;;2.57;;
12306;SDS011;6216;51.146;7.008;2022-09-21T04:48:19;5.40;;;2.30;;
12306;SDS011;6216;51.146;7.008;2022-09-21T04:50:47;6.60;;;2.33;;
12306;SDS011;6216;51.146;7.008;2022-09-21T04:53:15;3.67;;;2.30;;
12306;SDS011;6216;51.146;7.008;2022-09-21T04:55:44;3.77;;;2.37;;
12306;SDS011;6216;51.146;7.008;2022-09-21T04:58:12;8.97;;;3.43;;
12306;SDS011;6216;51.146;7.008;2022-09-21T05:00:40;4.37;;;3.07;;
12306;SDS011;6216;51.146;7.008;2022-09-21T05:03:09;5.57;;;3.17;;
12306;SDS011;6216;51.146;7.008;2022-09-21T05:05:37;3.57;;;3.23;;
12306;SDS011;6216;51.146;7.008;2022-09-21T05:08:05;4.73;;;3.43;;
12306;SDS011;6216;51.146;7.008;2022-09-21T05:10:32;4.17;;;3.20;;
12306;SDS011;6216;51.146;7.008;2022-09-21T05:13:00;5.90;;;3.10;;
12306;SDS011;6216;51.146;7.008;2022-09-21T05:15:27;4.70;;;2.70;;
12306;SDS011;6216;51.146;7.008;2022-09-21T05:17:55;5.90;;;2.87;;
12306;SDS011;6216;51.146;7.008;2022-09-21T05:20:25;4.70;;;2.97;;
12306;SDS011;6216;51.146;7.008;2022-09-21T05:22:53;6.80;;;3.80;;
12306;SDS011;6216;51.146;7.008;2022-09-21T05:25:20;6.53;;;3.80;;
12306;SDS011;6216;51.146;7.008;2022-09-21T05:27:48;5.90;;;2.90;;
12306;SDS011;6216;51.146;7.008;2022-09-21T05:30:16;4.37;;;2.80;;
12306;SDS011;6216;51.146;7.008;2022-09-21T05:32:46;5.73;;;2.83;;
12306;SDS011;6216;51.146;7.008;2022-09-21T05:35:23;3.53;;;2.67;;
12306;SDS011;6216;51.146;7.008;2022-09-21T05:38:01;4.93;;;2.90;;
12306;SDS011;6216;51.146;7.008;2022-09-21T05:40:34;6.33;;;3.67;;
12306;SDS011;6216;51.146;7.008;2022-09-21T05:43:03;4.63;;;3.47;;
12306;SDS011;6216;51.146;7.008;2022-09-21T05:45:31;5.90;;;2.90;;
12306;SDS011;6216;51.146;7.008;2022-09-21T05:48:02;4.13;;;2.63;;
12306;SDS011;6216;51.146;7.008;2022-09-21T05:50:44;7.73;;;3.30;;
12306;SDS011;6216;51.146;7.008;2022-09-21T05:56:11;5.27;;;3.17;;
12306;SDS011;6216;51.146;7.008;2022-09-21T05:58:50;4.67;;;3.70;;
12306;SDS011;6216;51.146;7.008;2022-09-21T06:01:29;4.07;;;2.60;;
12306;SDS011;6216;51.146;7.008;2022-09-21T06:04:07;4.50;;;2.63;;
12306;SDS011;6216;51.146;7.008;2022-09-21T06:06:39;3.47;;;2.73;;
12306;SDS011;6216;51.146;7.008;2022-09-21T06:09:07;4.00;;;2.37;;
12306;SDS011;6216;51.146;7.008;2022-09-21T06:11:34;5.90;;;3.00;;
12306;SDS011;6216;51.146;7.008;2022-09-21T06:14:03;2.67;;;2.37;;
12306;SDS011;6216;51.146;7.008;2022-09-21T06:16:37;5.53;;;3.10;;
12306;SDS011;6216;51.146;7.008;2022-09-21T06:19:05;5.53;;;2.70;;
12306;SDS011;6216;51.146;7.008;2022-09-21T06:21:33;3.73;;;2.53;;
12306;SDS011;6216;51.146;7.008;2022-09-21T06:24:02;2.87;;;2.20;;
12306;SDS011;6216;51.146;7.008;2022-09-21T06:26:30;6.73;;;2.33;;
12306;SDS011;6216;51.146;7.008;2022-09-21T06:28:58;4.03;;;2.50;;
12306;SDS011;6216;51.146;7.008;2022-09-21T06:31:26;3.93;;;1.80;;
12306;SDS011;6216;51.146;7.008;2022-09-21T06:33:54;4.13;;;2.10;;
12306;SDS011;6216;51.146;7.008;2022-09-21T06:36:22;2.33;;;2.13;;
12306;SDS011;6216;51.146;7.008;2022-09-21T06:38:50;3.93;;;2.17;;
12306;SDS011;6216;51.146;7.008;2022-09-21T06:41:19;3.00;;;1.80;;
12306;SDS011;6216;51.146;7.008;2022-09-21T06:43:47;3.57;;;2.17;;
12306;SDS011;6216;51.146;7.008;2022-09-21T06:46:15;3.67;;;1.80;;
12306;SDS011;6216;51.146;7.008;2022-09-21T06:48:43;5.27;;;2.17;;
12306;SDS011;6216;51.146;7.008;2022-09-21T06:51:11;3.10;;;2.00;;
12306;SDS011;6216;51.146;7.008;2022-09-21T06:53:39;5.10;;;1.80;;
12306;SDS011;6216;51.146;7.008;2022-09-21T06:56:07;3.03;;;1.80;;
12306;SDS011;6216;51.146;7.008;2022-09-21T06:58:37;6.60;;;2.33;;
12306;SDS011;6216;51.146;7.008;2022-09-21T07:01:05;3.53;;;2.10;;
12306;SDS011;6216;51.146;7.008;2022-09-21T07:03:35;6.63;;;2.23;;
12306;SDS011;6216;51.146;7.008;2022-09-21T07:06:03;3.73;;;2.17;;
12306;SDS011;6216;51.146;7.008;2022-09-21T07:08:32;3.43;;;2.00;;
12306;SDS011;6216;51.146;7.008;2022-09-21T07:11:21;4.23;;;3.17;;
12306;SDS011;6216;51.146;7.008;2022-09-21T07:13:51;6.50;;;2.80;;
12306;SDS011;6216;51.146;7.008;2022-09-21T07:16:19;8.67;;;3.27;;
12306;SDS011;6216;51.146;7.008;2022-09-21T07:18:47;5.97;;;3.37;;
12306;SDS011;6216;51.146;7.008;2022-09-21T07:21:15;5.67;;;3.13;;
12306;SDS011;6216;51.146;7.008;2022-09-21T07:23:43;8.90;;;4.23;;
12306;SDS011;6216;51.146;7.008;2022-09-21T07:26:11;6.17;;;4.30;;
12306;SDS011;6216;51.146;7.008;2022-09-21T07:28:40;5.70;;;4.27;;
12306;SDS011;6216;51.146;7.008;2022-09-21T07:31:10;8.70;;;4.77;;
12306;SDS011;6216;51.146;7.008;2022-09-21T07:33:40;5.27;;;3.83;;
12306;SDS011;6216;51.146;7.008;2022-09-21T07:36:08;6.27;;;3.57;;
12306;SDS011;6216;51.146;7.008;2022-09-21T07:38:39;6.50;;;4.10;;
12306;SDS011;6216;51.146;7.008;2022-09-21T07:41:08;6.27;;;4.23;;
12306;SDS011;6216;51.146;7.008;2022-09-21T07:43:38;4.70;;;3.43;;
12306;SDS011;6216;51.146;7.008;2022-09-21T07:46:07;4.60;;;3.60;;
12306;SDS011;6216;51.146;7.008;2022-09-21T07:48:38;7.43;;;4.03;;
12306;SDS011;6216;51.146;7.008;2022-09-21T07:51:07;3.90;;;3.13;;
12306;SDS011;6216;51.146;7.008;2022-09-21T07:53:36;5.20;;;3.53;;
12306;SDS011;6216;51.146;7.008;2022-09-21T07:56:07;5.43;;;3.37;;
12306;SDS011;6216;51.146;7.008;2022-09-21T07:58:36;4.67;;;3.10;;
12306;SDS011;6216;51.146;7.008;2022-09-21T08:01:23;4.17;;;2.67;;
12306;SDS011;6216;51.146;7.008;2022-09-21T08:03:52;5.10;;;3.40;;
12306;SDS011;6216;51.146;7.008;2022-09-21T08:06:22;4.17;;;2.83;;
12306;SDS011;6216;51.146;7.008;2022-09-21T08:08:51;4.90;;;2.70;;
12306;SDS011;6216;51.146;7.008;2022-09-21T08:11:23;4.47;;;2.80;;
12306;SDS011;6216;51.146;7.008;2022-09-21T08:13:53;3.00;;;2.67;;
12306;SDS011;6216;51.146;7.008;2022-09-21T08:16:24;4.37;;;2.67;;
12306;SDS011;6216;51.146;7.008;2022-09-21T08:18:53;4.30;;;2.90;;
12306;SDS011;6216;51.146;7.008;2022-09-21T08:21:22;6.57;;;2.60;;
12306;SDS011;6216;51.146;7.008;2022-09-21T08:23:49;3.77;;;2.40;;
12306;SDS011;6216;51.146;7.008;2022-09-21T08:26:18;6.50;;;2.80;;
12306;SDS011;6216;51.146;7.008;2022-09-21T08:28:47;7.60;;;2.60;;
12306;SDS011;6216;51.146;7.008;2022-09-21T08:31:17;5.10;;;2.67;;
12306;SDS011;6216;51.146;7.008;2022-09-21T08:33:49;3.93;;;2.53;;
12306;SDS011;6216;51.146;7.008;2022-09-21T08:36:17;4.33;;;2.40;;
12306;SDS011;6216;51.146;7.008;2022-09-21T08:38:46;5.73;;;2.90;;
12306;SDS011;6216;51.146;7.008;2022-09-21T08:41:15;2.97;;;2.10;;
12306;SDS011;6216;51.146;7.008;2022-09-21T08:43:46;5.40;;;2.10;;
12306;SDS011;6216;51.146;7.008;2022-09-21T08:46:18;3.47;;;2.03;;
12306;SDS011;6216;51.146;7.008;2022-09-21T08:48:51;2.30;;;1.80;;
12306;SDS011;6216;51.146;7.008;2022-09-21T08:51:23;4.40;;;2.00;;
12306;SDS011;6216;51.146;7.008;2022-09-21T08:53:55;2.00;;;1.70;;
12306;SDS011;6216;51.146;7.008;2022-09-21T08:56:26;4.03;;;1.87;;
12306;SDS011;6216;51.146;7.008;2022-09-21T08:59:13;5.63;;;2.00;;
12306;SDS011;6216;51.146;7.008;2022-09-21T09:01:46;4.10;;;1.90;;
12306;SDS011;6216;51.146;7.008;2022-09-21T09:04:34;4.80;;;1.80;;
12306;SDS011;6216;51.146;7.008;2022-09-21T09:07:19;5.93;;;2.37;;
12306;SDS011;6216;51.146;7.008;2022-09-21T09:10:02;4.20;;;1.97;;
12306;SDS011;6216;51.146;7.008;2022-09-21T09:12:44;4.97;;;2.50;;
12306;SDS011;6216;51.146;7.008;2022-09-21T09:15:30;2.93;;;1.80;;
12306;SDS011;6216;51.146;7.008;2022-09-21T09:18:17;6.57;;;2.17;;
12306;SDS011;6216;51.146;7.008;2022-09-21T09:20:54;5.87;;;1.50;;
12306;SDS011;6216;51.146;7.008;2022-09-21T09:23:24;5.80;;;1.87;;
12306;SDS011;6216;51.146;7.008;2022-09-21T09:25:55;3.43;;;1.70;;
12306;SDS011;6216;51.146;7.008;2022-09-21T09:28:29;2.13;;;1.53;;
12306;SDS011;6216;51.146;7.008;2022-09-21T09:31:03;3.53;;;1.90;;
12306;SDS011;6216;51.146;7.008;2022-09-21T09:33:47;3.43;;;1.90;;
12306;SDS011;6216;51.146;7.008;2022-09-21T09:36:23;3.40;;;1.87;;
12306;SDS011;6216;51.146;7.008;2022-09-21T09:39:14;5.57;;;1.57;;
12306;SDS011;6216;51.146;7.008;2022-09-21T09:41:50;4.90;;;1.83;;
12306;SDS011;6216;51.146;7.008;2022-09-21T09:44:32;5.07;;;1.73;;
12306;SDS011;6216;51.146;7.008;2022-09-21T09:47:15;3.33;;;1.40;;
12306;SDS011;6216;51.146;7.008;2022-09-21T09:49:54;5.70;;;1.80;;
12306;SDS011;6216;51.146;7.008;2022-09-21T09:52:31;2.03;;;1.43;;
12306;SDS011;6216;51.146;7.008;2022-09-21T09:54:59;2.50;;;1.43;;
12306;SDS011;6216;51.146;7.008;2022-09-21T09:57:28;2.00;;;1.40;;
12306;SDS011;6216;51.146;7.008;2022-09-21T09:59:58;4.17;;;1.37;;
12306;SDS011;6216;51.146;7.008;2022-09-21T10:02:29;3.10;;;1.30;;
12306;SDS011;6216;51.146;7.008;2022-09-21T10:04:57;2.67;;;1.17;;
12306;SDS011;6216;51.146;7.008;2022-09-21T10:07:36;2.63;;;0.93;;
12306;SDS011;6216;51.146;7.008;2022-09-21T10:12:49;5.17;;;1.40;;
12306;SDS011;6216;51.146;7.008;2022-09-21T10:15:18;3.63;;;1.43;;
12306;SDS011;6216;51.146;7.008;2022-09-21T10:17:47;2.23;;;1.30;;
12306;SDS011;6216;51.146;7.008;2022-09-21T10:20:23;4.33;;;1.20;;
12306;SDS011;6216;51.146;7.008;2022-09-21T10:22:53;2.37;;;1.50;;
12306;SDS011;6216;51.146;7.008;2022-09-21T10:25:22;1.70;;;1.20;;
12306;SDS011;6216;51.146;7.008;2022-09-21T10:27:50;3.63;;;1.23;;
12306;SDS011;6216;51.146;7.008;2022-09-21T10:30:30;3.17;;;1.30;;
12306;SDS011;6216;51.146;7.008;2022-09-21T10:33:00;4.07;;;1.20;;
12306;SDS011;6216;51.146;7.008;2022-09-21T10:35:28;5.33;;;1.30;;
12306;SDS011;6216;51.146;7.008;2022-09-21T10:38:10;3.30;;;1.10;;
12306;SDS011;6216;51.146;7.008;2022-09-21T10:40:47;2.27;;;1.20;;
12306;SDS011;6216;51.146;7.008;2022-09-21T10:43:23;2.03;;;1.00;;
12306;SDS011;6216;51.146;7.008;2022-09-21T10:45:59;5.03;;;1.00;;
12306;SDS011;6216;51.146;7.008;2022-09-21T10:48:28;3.67;;;1.00;;
12306;SDS011;6216;51.146;7.008;2022-09-21T10:50:56;2.07;;;1.23;;
12306;SDS011;6216;51.146;7.008;2022-09-21T10:53:26;6.73;;;1.20;;
12306;SDS011;6216;51.146;7.008;2022-09-21T10:55:56;5.10;;;1.30;;
12306;SDS011;6216;51.146;7.008;2022-09-21T11:01:42;7.83;;;1.40;;
12306;SDS011;6216;51.146;7.008;2022-09-21T11:04:13;2.03;;;1.27;;
12306;SDS011;6216;51.146;7.008;2022-09-21T11:06:46;8.80;;;1.77;;
12306;SDS011;6216;51.146;7.008;2022-09-21T11:09:20;2.10;;;0.97;;
12306;SDS011;6216;51.146;7.008;2022-09-21T11:11:52;5.57;;;1.20;;
12306;SDS011;6216;51.146;7.008;2022-09-21T11:14:34;2.47;;;1.03;;
12306;SDS011;6216;51.146;7.008;2022-09-21T11:17:10;1.80;;;1.00;;
12306;SDS011;6216;51.146;7.008;2022-09-21T11:19:46;1.47;;;1.00;;
12306;SDS011;6216;51.146;7.008;2022-09-21T11:22:18;3.53;;;1.30;;
12306;SDS011;6216;51.146;7.008;2022-09-21T11:24:56;5.57;;;1.40;;
12306;SDS011;6216;51.146;7.008;2022-09-21T11:27:29;4.47;;;1.33;;
12306;SDS011;6216;51.146;7.008;2022-09-21T11:30:02;2.70;;;1.03;;
12306;SDS011;6216;51.146;7.008;2022-09-21T11:32:36;2.93;;;1.17;;
12306;SDS011;6216;51.146;7.008;2022-09-21T11:38:17;1.50;;;1.10;;
12306;SDS011;6216;51.146;7.008;2022-09-21T11:41:13;5.07;;;1.33;;
12306;SDS011;6216;51.146;7.008;2022-09-21T11:43:55;3.00;;;1.20;;
12306;SDS011;6216;51.146;7.008;2022-09-21T11:46:44;5.37;;;1.33;;
12306;SDS011;6216;51.146;7.008;2022-09-21T11:49:23;3.67;;;1.97;;
12306;SDS011;6216;51.146;7.008;2022-09-21T11:52:08;2.47;;;1.00;;
12306;SDS011;6216;51.146;7.008;2022-09-21T11:54:50;3.37;;;1.10;;
12306;SDS011;6216;51.146;7.008;2022-09-21T11:57:32;3.40;;;1.30;;
12306;SDS011;6216;51.146;7.008;2022-09-21T12:00:07;2.73;;;1.27;;
12306;SDS011;6216;51.146;7.008;2022-09-21T12:05:40;2.27;;;1.10;;
12306;SDS011;6216;51.146;7.008;2022-09-21T12:08:29;3.03;;;1.20;;
12306;SDS011;6216;51.146;7.008;2022-09-21T12:11:22;2.93;;;1.13;;
12306;SDS011;6216;51.146;7.008;2022-09-21T12:14:09;3.30;;;1.20;;
12306;SDS011;6216;51.146;7.008;2022-09-21T12:16:49;2.37;;;1.10;;
12306;SDS011;6216;51.146;7.008;2022-09-21T12:19:25;4.60;;;1.43;;
12306;SDS011;6216;51.146;7.008;2022-09-21T12:22:02;2.43;;;1.07;;
12306;SDS011;6216;51.146;7.008;2022-09-21T12:24:33;2.90;;;1.30;;
12306;SDS011;6216;51.146;7.008;2022-09-21T12:27:08;2.73;;;1.27;;
12306;SDS011;6216;51.146;7.008;2022-09-21T12:29:42;3.87;;;1.40;;
12306;SDS011;6216;51.146;7.008;2022-09-21T12:32:15;4.17;;;1.20;;
12306;SDS011;6216;51.146;7.008;2022-09-21T12:34:53;4.27;;;1.47;;
12306;SDS011;6216;51.146;7.008;2022-09-21T12:37:25;2.93;;;1.03;;
12306;SDS011;6216;51.146;7.008;2022-09-21T12:39:59;2.77;;;0.80;;
12306;SDS011;6216;51.146;7.008;2022-09-21T12:42:33;2.40;;;0.97;;
12306;SDS011;6216;51.146;7.008;2022-09-21T12:45:14;3.40;;;1.27;;
12306;SDS011;6216;51.146;7.008;2022-09-21T12:47:51;5.33;;;1.00;;
12306;SDS011;6216;51.146;7.008;2022-09-21T12:50:25;3.73;;;1.30;;
12306;SDS011;6216;51.146;7.008;2022-09-21T12:52:56;2.33;;;1.07;;
12306;SDS011;6216;51.146;7.008;2022-09-21T12:55:31;2.57;;;1.10;;
12306;SDS011;6216;51.146;7.008;2022-09-21T12:58:07;2.43;;;0.93;;
12306;SDS011;6216;51.146;7.008;2022-09-21T13:00:48;2.80;;;1.17;;
12306;SDS011;6216;51.146;7.008;2022-09-21T13:03:26;4.33;;;1.33;;
12306;SDS011;6216;51.146;7.008;2022-09-21T13:08:57;3.00;;;1.07;;
12306;SDS011;6216;51.146;7.008;2022-09-21T13:11:32;3.37;;;0.97;;
12306;SDS011;6216;51.146;7.008;2022-09-21T13:14:01;3.47;;;1.00;;
12306;SDS011;6216;51.146;7.008;2022-09-21T13:16:32;5.07;;;1.23;;
12306;SDS011;6216;51.146;7.008;2022-09-21T13:19:04;1.97;;;1.10;;
12306;SDS011;6216;51.146;7.008;2022-09-21T13:21:43;3.23;;;1.23;;
12306;SDS011;6216;51.146;7.008;2022-09-21T13:24:24;1.63;;;1.20;;
12306;SDS011;6216;51.146;7.008;2022-09-21T13:26:54;2.10;;;0.90;;
12306;SDS011;6216;51.146;7.008;2022-09-21T13:29:31;2.30;;;0.90;;
12306;SDS011;6216;51.146;7.008;2022-09-21T13:32:01;3.63;;;1.10;;
12306;SDS011;6216;51.146;7.008;2022-09-21T13:34:46;2.47;;;1.10;;
12306;SDS011;6216;51.146;7.008;2022-09-21T13:37:26;3.20;;;1.00;;
12306;SDS011;6216;51.146;7.008;2022-09-21T13:43:23;2.63;;;0.87;;
12306;SDS011;6216;51.146;7.008;2022-09-21T13:49:16;2.10;;;1.00;;
12306;SDS011;6216;51.146;7.008;2022-09-21T13:51:52;3.13;;;1.10;;
12306;SDS011;6216;51.146;7.008;2022-09-21T13:54:25;3.20;;;1.20;;
12306;SDS011;6216;51.146;7.008;2022-09-21T13:56:59;2.37;;;1.10;;
12306;SDS011;6216;51.146;7.008;2022-09-21T13:59:34;2.97;;;0.80;;
12306;SDS011;6216;51.146;7.008;2022-09-21T14:02:06;3.37;;;0.90;;
12306;SDS011;6216;51.146;7.008;2022-09-21T14:04:52;2.97;;;0.90;;
12306;SDS011;6216;51.146;7.008;2022-09-21T14:07:21;1.40;;;0.70;;
12306;SDS011;6216;51.146;7.008;2022-09-21T14:09:56;2.47;;;1.10;;
12306;SDS011;6216;51.146;7.008;2022-09-21T14:12:26;1.80;;;1.00;;
12306;SDS011;6216;51.146;7.008;2022-09-21T14:15:08;2.07;;;0.90;;
12306;SDS011;6216;51.146;7.008;2022-09-21T14:18:08;1.30;;;0.70;;
12306;SDS011;6216;51.146;7.008;2022-09-21T14:26:44;2.10;;;0.90;;
12306;SDS011;6216;51.146;7.008;2022-09-21T14:29:30;1.80;;;0.77;;
12306;SDS011;6216;51.146;7.008;2022-09-21T14:32:06;3.03;;;1.23;;
12306;SDS011;6216;51.146;7.008;2022-09-21T14:34:43;2.73;;;0.90;;
12306;SDS011;6216;51.146;7.008;2022-09-21T14:37:21;1.67;;;0.90;;
12306;SDS011;6216;51.146;7.008;2022-09-21T14:39:55;4.03;;;1.20;;
12306;SDS011;6216;51.146;7.008;2022-09-21T14:42:25;2.63;;;0.90;;
12306;SDS011;6216;51.146;7.008;2022-09-21T14:44:55;4.03;;;1.20;;
12306;SDS011;6216;51.146;7.008;2022-09-21T14:50:26;2.00;;;0.90;;
12306;SDS011;6216;51.146;7.008;2022-09-21T14:56:00;1.10;;;0.80;;
12306;SDS011;6216;51.146;7.008;2022-09-21T14:59:09;1.97;;;1.10;;
12306;SDS011;6216;51.146;7.008;2022-09-21T15:01:53;3.23;;;1.23;;
12306;SDS011;6216;51.146;7.008;2022-09-21T15:04:35;4.67;;;1.23;;
12306;SDS011;6216;51.146;7.008;2022-09-21T15:07:22;2.03;;;0.93;;
12306;SDS011;6216;51.146;7.008;2022-09-21T15:10:19;3.23;;;1.13;;
12306;SDS011;6216;51.146;7.008;2022-09-21T15:13:30;3.13;;;1.03;;
12306;SDS011;6216;51.146;7.008;2022-09-21T15:16:10;3.80;;;1.10;;
12306;SDS011;6216;51.146;7.008;2022-09-21T15:18:45;2.10;;;0.63;;
12306;SDS011;6216;51.146;7.008;2022-09-21T15:21:21;3.50;;;0.90;;
12306;SDS011;6216;51.146;7.008;2022-09-21T15:23:52;4.37;;;1.00;;
12306;SDS011;6216;51.146;7.008;2022-09-21T15:26:23;1.90;;;0.90;;
12306;SDS011;6216;51.146;7.008;2022-09-21T15:28:55;1.47;;;0.80;;
12306;SDS011;6216;51.146;7.008;2022-09-21T15:31:40;1.87;;;0.73;;
12306;SDS011;6216;51.146;7.008;2022-09-21T15:34:08;2.57;;;0.83;;
12306;SDS011;6216;51.146;7.008;2022-09-21T15:36:40;2.00;;;1.00;;
12306;SDS011;6216;51.146;7.008;2022-09-21T15:39:22;1.10;;;0.53;;
12306;SDS011;6216;51.146;7.008;2022-09-21T15:42:04;1.30;;;0.90;;
12306;SDS011;6216;51.146;7.008;2022-09-21T15:44:45;4.33;;;1.10;;
12306;SDS011;6216;51.146;7.008;2022-09-21T15:47:16;2.13;;;0.87;;
12306;SDS011;6216;51.146;7.008;2022-09-21T15:49:46;1.90;;;0.83;;
12306;SDS011;6216;51.146;7.008;2022-09-21T15:52:18;4.10;;;0.70;;
12306;SDS011;6216;51.146;7.008;2022-09-21T15:54:54;1.63;;;0.80;;
12306;SDS011;6216;51.146;7.008;2022-09-21T15:57:31;1.90;;;0.90;;
12306;SDS011;6216;51.146;7.008;2022-09-21T16:00:05;2.73;;;0.77;;
12306;SDS011;6216;51.146;7.008;2022-09-21T16:02:49;1.70;;;0.90;;
12306;SDS011;6216;51.146;7.008;2022-09-21T16:05:31;3.00;;;0.90;;
12306;SDS011;6216;51.146;7.008;2022-09-21T16:08:15;1.03;;;0.60;;
12306;SDS011;6216;51.146;7.008;2022-09-21T16:10:47;2.63;;;0.90;;
12306;SDS011;6216;51.146;7.008;2022-09-21T16:13:18;1.23;;;0.63;;